EFJO

Joensuu Airport

Joensuu / Liperi, Finland
METAR EFJO 231550Z 00000KT 9999 SCT024 M00/M01 Q0991
Observed Flight Rules
Oct-23 @ 15:50 UTC (27 minutes ago) Visual Flight Rules
Visibility Clouds
10,000+ meters
  • Scattered at 2,400' AGL
Temperatures Readings
Current 0°C / 32°F
Dewpoint -1°C / 30°F
Humidity 93%
Altimeter 29.26" Hg
Pressure 991 hPa
Elevation 117
METAR EFJO 231550Z 00000KT 9999 SCT024 M00/M01 Q0991
Observed Flight Rules
Oct-23 @ 15:50 UTC
(27 minutes ago)
VFR
Clouds
  • Scattered at 2,400' AGL
Temperature Dewpoint
0°C / 32°F -1°C / 30°F
Humidity Altimeter Pressure
93% 29.26" Hg 991 hPa